Terminal Aerodrome Forecast
Issued by NWS Wilmington, OH

Current Version | Previous Version | Text Only | Print | Product List | Glossary Off
Versions: 1 2 3 4 5 6 7 8 9 10 11 12 13 14 15 16 17 18 19 20 21 22 23 24 25 26 27 28 29 30 31 32 33 34

000
FTUS41 KILN 172000 AAA
TAFCVG
TAF AMD
KCVG 172029Z 1720/1824 17007KT P6SM VCSH BKN027 OVC070
     FM180100 16003KT 5SM BR VCSH OVC027
     FM180800 15003KT 3SM BR VCSH OVC025
     FM181100 16003KT 2SM BR OVC012
     FM181400 29004KT 4SM HZ VCSH OVC025
     FM181800 30006KT P6SM OVC035=

USA.gov is the U.S. government's official web portal to all federal, state and local government web resources and services.